createdAt,value
2023-05-03T00:02:12.400Z,48.36
2023-05-03T00:04:45.483Z,48.54
2023-05-03T00:07:13.700Z,48.28
2023-05-03T00:09:41.523Z,48.70
2023-05-03T00:12:09.429Z,48.80
2023-05-03T00:14:37.325Z,48.59
2023-05-03T00:17:05.012Z,48.76
2023-05-03T00:19:33.709Z,48.65
2023-05-03T00:22:03.868Z,49.20
2023-05-03T00:24:31.682Z,49.04
2023-05-03T00:26:59.498Z,49.01
2023-05-03T00:29:38.504Z,49.04
2023-05-03T00:32:07.693Z,48.82
2023-05-03T00:34:35.929Z,48.78
2023-05-03T00:37:04.998Z,49.27
2023-05-03T00:39:32.934Z,48.88
2023-05-03T00:42:01.361Z,49.33
2023-05-03T00:44:29.065Z,49.32
2023-05-03T00:46:56.970Z,49.30
2023-05-03T00:49:25.297Z,49.13
2023-05-03T00:51:53.106Z,49.59
2023-05-03T00:54:22.246Z,49.01
2023-05-03T00:56:52.193Z,49.31
2023-05-03T00:59:20.307Z,49.24
2023-05-03T01:01:49.293Z,48.47
2023-05-03T01:04:17.394Z,49.82
2023-05-03T01:06:46.351Z,48.83
2023-05-03T01:09:17.714Z,49.19
2023-05-03T01:11:52.956Z,48.78
2023-05-03T01:14:24.131Z,49.63
2023-05-03T01:16:54.120Z,50.00
2023-05-03T01:19:35.851Z,50.13
2023-05-03T01:22:10.143Z,49.44
2023-05-03T01:24:38.573Z,49.16
2023-05-03T01:27:09.317Z,50.49
2023-05-03T01:29:36.973Z,50.12
2023-05-03T01:32:05.834Z,50.19
2023-05-03T01:34:41.166Z,50.01
2023-05-03T01:37:10.420Z,50.32
2023-05-03T01:39:40.000Z,50.43
2023-05-03T01:42:08.939Z,50.37
2023-05-03T01:44:36.764Z,50.42
2023-05-03T01:47:04.551Z,50.82
2023-05-03T01:49:32.255Z,51.24
2023-05-03T01:51:59.835Z,51.07
2023-05-03T01:54:27.473Z,50.31
2023-05-03T01:56:55.370Z,51.48
2023-05-03T01:59:24.372Z,51.11
2023-05-03T02:01:52.082Z,50.85
2023-05-03T02:04:19.802Z,51.20
2023-05-03T02:06:47.563Z,51.29
2023-05-03T02:09:15.362Z,51.22
2023-05-03T02:11:43.870Z,51.08
2023-05-03T02:14:11.446Z,51.43
2023-05-03T02:16:40.834Z,51.56
2023-05-03T02:19:08.443Z,51.38
2023-05-03T02:21:36.271Z,50.99
2023-05-03T02:24:04.249Z,51.36
2023-05-03T02:26:32.015Z,50.87
2023-05-03T02:28:59.641Z,51.35
2023-05-03T02:31:27.761Z,50.94
2023-05-03T03:52:18.976Z,52.91
2023-05-03T03:55:07.938Z,53.11
2023-05-03T03:57:35.695Z,53.00
2023-05-03T04:00:05.499Z,52.73
2023-05-03T04:02:47.446Z,52.76
2023-05-03T04:05:16.883Z,52.71
2023-05-03T04:07:47.615Z,52.79
2023-05-03T04:10:15.411Z,52.68
2023-05-03T04:12:44.690Z,52.73
2023-05-03T04:15:12.890Z,53.31
2023-05-03T04:17:41.708Z,52.76
2023-05-03T04:20:11.455Z,53.39
2023-05-03T04:22:41.707Z,52.71
2023-05-03T04:25:14.264Z,52.86
2023-05-03T04:27:42.975Z,52.70
2023-05-03T04:30:12.244Z,52.70
2023-05-03T04:32:43.167Z,52.82
2023-05-03T04:35:12.833Z,52.68
2023-05-03T04:37:42.463Z,52.50
2023-05-03T04:40:13.145Z,52.81
2023-05-03T04:42:42.697Z,52.16
2023-05-03T04:45:14.850Z,52.30
2023-05-03T04:47:43.635Z,52.64
2023-05-03T04:50:20.150Z,52.29
2023-05-03T04:52:48.958Z,52.21
2023-05-03T04:55:19.626Z,51.75
2023-05-03T04:57:48.395Z,52.12
2023-05-03T05:00:17.763Z,52.20
2023-05-03T05:02:46.682Z,51.63
2023-05-03T05:05:18.007Z,51.57
2023-05-03T05:07:47.610Z,51.64
2023-05-03T05:10:16.120Z,51.17
2023-05-03T05:12:46.105Z,51.16
2023-05-03T05:15:14.640Z,51.35
2023-05-03T05:17:43.999Z,51.84
2023-05-03T05:20:13.844Z,51.53
2023-05-03T05:22:43.159Z,50.88
2023-05-03T05:25:12.190Z,51.26
2023-05-03T05:27:41.787Z,50.80
2023-05-03T05:30:12.875Z,51.21
2023-05-03T05:32:42.082Z,51.18
2023-05-03T05:35:12.604Z,50.95
2023-05-03T05:37:41.407Z,49.91
2023-05-03T05:40:11.418Z,50.19
2023-05-03T05:42:40.177Z,49.30
2023-05-03T05:45:10.804Z,49.10
2023-05-03T05:47:39.742Z,48.56
2023-05-03T05:50:16.852Z,48.14
2023-05-03T05:52:45.711Z,47.62
2023-05-03T05:55:15.105Z,46.36
2023-05-03T05:57:42.680Z,45.95
2023-05-03T06:00:15.752Z,45.27
2023-05-03T06:02:45.814Z,44.12
2023-05-03T06:05:20.506Z,43.44
2023-05-03T06:07:49.783Z,41.95
2023-05-03T06:10:18.368Z,42.16
2023-05-03T06:12:47.125Z,40.75
2023-05-03T06:15:14.974Z,39.95
2023-05-03T06:17:44.034Z,38.94
2023-05-03T06:20:13.782Z,38.60
2023-05-03T06:22:41.674Z,38.06
2023-05-03T06:25:10.509Z,37.83
2023-05-03T06:27:38.470Z,36.94
2023-05-03T06:30:07.419Z,36.27
2023-05-03T06:32:35.015Z,36.15
2023-05-03T06:35:04.040Z,35.68
2023-05-03T06:37:33.060Z,35.33
2023-05-03T06:40:00.791Z,34.78
2023-05-03T06:42:28.681Z,33.89
2023-05-03T06:44:58.596Z,33.58
2023-05-03T07:04:00.275Z,30.35
2023-05-03T07:06:28.053Z,30.03
2023-05-03T07:08:55.925Z,29.71
2023-05-03T07:11:24.739Z,29.17
2023-05-03T07:13:53.745Z,28.93
2023-05-03T07:16:21.731Z,29.26
2023-05-03T07:18:49.648Z,28.04
2023-05-03T07:21:18.787Z,26.77
2023-05-03T07:23:46.474Z,26.68
2023-05-03T07:26:15.227Z,26.10
2023-05-03T07:28:42.980Z,26.32
2023-05-03T07:31:12.057Z,26.70
2023-05-03T07:33:42.502Z,26.32
2023-05-03T07:36:10.281Z,25.98
2023-05-03T07:38:39.286Z,25.90
2023-05-03T07:41:07.045Z,25.99
2023-05-03T07:43:34.624Z,25.83
2023-05-03T07:46:02.227Z,25.44
2023-05-03T07:48:29.861Z,25.09
2023-05-03T07:50:57.458Z,25.45
2023-05-03T07:53:25.462Z,25.47
2023-05-03T07:55:56.681Z,24.97
2023-05-03T07:58:38.913Z,24.15
2023-05-03T08:01:07.485Z,23.77
2023-05-03T08:03:36.103Z,24.06
2023-05-03T08:06:06.343Z,23.61
2023-05-03T08:08:36.150Z,23.24
2023-05-03T08:11:10.075Z,22.98
2023-05-03T08:13:38.779Z,23.03
2023-05-03T08:24:07.816Z,22.01
2023-05-03T10:00:02.470Z,15.07
2023-05-03T12:43:37.488Z,26.33
2023-05-03T13:54:19.771Z,28.01
2023-05-03T14:01:36.132Z,28.22
2023-05-03T14:18:16.118Z,28.10
2023-05-03T14:35:11.216Z,27.78
2023-05-03T14:37:38.934Z,28.00
2023-05-03T14:40:08.900Z,28.38
2023-05-03T14:42:37.268Z,28.64
2023-05-03T14:45:10.930Z,28.53
2023-05-03T14:47:39.974Z,28.52
2023-05-03T14:50:13.050Z,28.66
2023-05-03T14:52:41.142Z,29.12
2023-05-03T14:55:09.993Z,28.82
2023-05-03T14:57:38.260Z,28.90
2023-05-03T15:00:14.478Z,28.91
2023-05-03T15:02:42.797Z,29.01
2023-05-03T15:05:13.008Z,28.82
2023-05-03T15:07:41.565Z,28.99
2023-05-03T15:10:10.559Z,28.96
2023-05-03T15:12:39.311Z,29.13
2023-05-03T15:15:13.098Z,29.26
2023-05-03T15:17:43.934Z,29.21
2023-05-03T15:20:15.353Z,29.25
2023-05-03T15:22:43.473Z,29.34
2023-05-03T15:25:11.829Z,29.54
2023-05-03T15:27:40.097Z,29.66
2023-05-03T15:30:12.410Z,28.98
2023-05-03T15:32:40.737Z,29.35
2023-05-03T15:35:09.581Z,29.54
2023-05-03T15:37:38.333Z,29.61
2023-05-03T15:40:09.463Z,29.55
2023-05-03T15:42:37.636Z,29.60
2023-05-03T15:45:07.322Z,29.81
2023-05-03T15:47:36.746Z,29.42
2023-05-03T15:50:06.468Z,29.70
2023-05-03T15:52:36.767Z,29.66
2023-05-03T15:55:07.458Z,29.76
2023-05-03T15:57:35.826Z,29.78
2023-05-03T16:00:06.672Z,29.94
2023-05-03T16:02:36.307Z,30.05
2023-05-03T16:05:04.124Z,29.99
2023-05-03T16:07:32.006Z,29.69
2023-05-03T16:09:59.903Z,30.14
2023-05-03T16:12:27.778Z,30.23
2023-05-03T16:14:55.650Z,30.44
2023-05-03T16:17:23.298Z,30.15
2023-05-03T16:19:52.661Z,30.75
2023-05-03T16:22:20.571Z,30.72
2023-05-03T16:24:48.459Z,30.76
2023-05-03T16:27:16.861Z,30.82
2023-05-03T16:29:44.862Z,31.09
2023-05-03T16:32:13.798Z,30.73
2023-05-03T16:34:42.610Z,31.05
2023-05-03T16:37:17.984Z,30.92
2023-05-03T16:39:48.328Z,31.08
2023-05-03T16:42:16.617Z,31.24
2023-05-03T16:44:44.789Z,31.58
2023-05-03T16:47:14.942Z,31.47
2023-05-03T16:49:42.750Z,31.62
2023-05-03T16:52:11.906Z,31.30
2023-05-03T16:54:40.223Z,31.26
2023-05-03T16:57:08.113Z,31.57
2023-05-03T16:59:36.412Z,31.27
2023-05-03T17:02:18.777Z,31.77
2023-05-03T17:04:50.230Z,31.92
2023-05-03T17:07:22.346Z,31.85
2023-05-03T17:09:51.332Z,31.74
2023-05-03T17:12:20.271Z,31.84
2023-05-03T17:14:48.517Z,31.67
2023-05-03T17:17:16.931Z,31.66
2023-05-03T17:19:47.150Z,31.76
2023-05-03T17:22:15.854Z,32.04
2023-05-03T17:24:46.565Z,32.20
2023-05-03T17:27:14.666Z,32.10
2023-05-03T17:29:43.855Z,31.83
2023-05-03T17:32:12.291Z,32.36
2023-05-03T17:34:40.561Z,32.35
2023-05-03T17:37:09.057Z,32.68
2023-05-03T17:39:37.104Z,32.45
2023-05-03T17:42:07.423Z,32.61
2023-05-03T17:44:35.584Z,32.14
2023-05-03T17:47:11.446Z,32.60
2023-05-03T17:49:41.260Z,32.59
2023-05-03T17:52:12.320Z,32.37
2023-05-03T17:54:51.033Z,32.49
2023-05-03T17:57:21.519Z,32.71
2023-05-03T17:59:50.220Z,32.72
2023-05-03T18:02:24.623Z,32.67
2023-05-03T18:04:52.929Z,32.94
2023-05-03T18:07:26.432Z,32.74
2023-05-03T18:09:54.344Z,33.08
2023-05-03T18:12:24.024Z,33.21
2023-05-03T18:14:51.883Z,33.14
2023-05-03T18:17:19.690Z,33.55
2023-05-03T18:19:47.527Z,33.62
2023-05-03T18:22:15.675Z,33.32
2023-05-03T18:24:43.495Z,34.00
2023-05-03T18:27:12.636Z,33.81
2023-05-03T18:29:41.922Z,33.58
2023-05-03T18:32:09.878Z,33.90
2023-05-03T18:34:38.267Z,33.87
2023-05-03T18:37:06.210Z,33.95
2023-05-03T18:39:34.781Z,33.84
2023-05-03T18:42:03.464Z,34.27
2023-05-03T18:44:32.645Z,35.13
2023-05-03T18:47:03.416Z,35.00
2023-05-03T20:02:22.069Z,36.73
2023-05-03T20:21:42.840Z,37.18
2023-05-03T20:45:17.796Z,38.21
2023-05-03T21:10:43.203Z,39.05
2023-05-03T21:14:25.784Z,39.45
2023-05-03T21:59:55.070Z,41.46
2023-05-03T22:02:24.139Z,41.73
2023-05-03T22:04:51.835Z,41.37
2023-05-03T22:07:19.502Z,42.07
2023-05-03T22:09:47.232Z,41.56
2023-05-03T22:12:23.610Z,41.76
2023-05-03T22:17:29.071Z,41.56
2023-05-03T22:19:56.695Z,41.87
2023-05-03T22:22:24.405Z,42.16
2023-05-03T22:24:51.992Z,42.07
2023-05-03T22:27:19.948Z,41.75
2023-05-03T22:29:47.518Z,41.74
2023-05-03T22:32:15.419Z,42.10
2023-05-03T22:34:45.282Z,41.96
2023-05-03T22:37:13.195Z,42.07
2023-05-03T22:39:40.835Z,42.50
2023-05-03T22:42:08.605Z,42.09
2023-05-03T22:44:37.579Z,42.33
2023-05-03T22:47:05.464Z,42.17
2023-05-03T22:49:33.032Z,42.10
2023-05-03T22:52:04.002Z,42.30
2023-05-03T22:54:31.602Z,42.39
2023-05-03T22:56:59.484Z,42.46
2023-05-03T22:59:27.267Z,42.27
2023-05-03T23:01:55.006Z,42.46
2023-05-03T23:04:22.670Z,42.91
2023-05-03T23:06:50.445Z,43.16
2023-05-03T23:09:19.696Z,43.01
2023-05-03T23:11:47.527Z,43.12
2023-05-03T23:14:15.292Z,43.11
2023-05-03T23:16:42.933Z,43.48
2023-05-03T23:19:10.934Z,43.41
2023-05-03T23:21:38.526Z,43.83
2023-05-03T23:24:07.151Z,43.83
2023-05-03T23:26:36.180Z,43.70
2023-05-03T23:29:04.289Z,43.74
2023-05-03T23:31:32.663Z,43.95
2023-05-03T23:34:02.336Z,43.91
2023-05-03T23:36:29.912Z,43.95
2023-05-03T23:38:57.864Z,44.09
2023-05-03T23:41:25.957Z,44.24
2023-05-03T23:43:55.141Z,44.35
2023-05-03T23:46:22.803Z,44.51
2023-05-03T23:48:50.711Z,44.70
2023-05-03T23:51:18.491Z,44.53
2023-05-03T23:53:46.256Z,44.73
2023-05-03T23:56:13.915Z,44.35
2023-05-03T23:58:41.665Z,44.63
